createdAt,value
2023-04-04T00:01:45.629Z,0.02
2023-04-04T00:04:47.159Z,-0.04
2023-04-04T00:07:50.144Z,-0.07
2023-04-04T00:10:56.927Z,-0.11
2023-04-04T00:13:58.673Z,-0.13
2023-04-04T00:17:00.503Z,-0.19
2023-04-04T00:20:04.396Z,-0.21
2023-04-04T00:23:07.502Z,-0.22
2023-04-04T00:26:08.992Z,-0.22
2023-04-04T00:29:11.037Z,-0.26
2023-04-04T00:32:12.720Z,-0.25
2023-04-04T00:35:15.711Z,-0.30
2023-04-04T00:38:19.436Z,-0.33
2023-04-04T00:41:21.504Z,-0.40
2023-04-04T00:44:23.142Z,-0.44
2023-04-04T00:47:26.191Z,-0.50
2023-04-04T00:50:27.933Z,-0.52
2023-04-04T00:53:30.939Z,-0.51
2023-04-04T00:56:33.456Z,-0.51
2023-04-04T00:59:36.248Z,-0.52
2023-04-04T01:02:38.305Z,-0.50
2023-04-04T01:05:40.133Z,-0.52
2023-04-04T01:08:43.647Z,-0.52
2023-04-04T01:11:45.756Z,-0.53
2023-04-04T01:14:47.942Z,-0.60
2023-04-04T01:17:52.012Z,-0.66
2023-04-04T01:20:56.582Z,-0.68
2023-04-04T01:24:01.698Z,-0.71
2023-04-04T01:27:27.811Z,-0.67
2023-04-04T01:30:36.940Z,-0.70
2023-04-04T01:33:43.365Z,-0.69
2023-04-04T01:36:49.443Z,-0.68
2023-04-04T01:39:53.986Z,-0.68
2023-04-04T01:42:57.919Z,-0.67
2023-04-04T01:46:02.005Z,-0.76
2023-04-04T01:49:04.087Z,-0.78
2023-04-04T01:52:09.577Z,-0.81
2023-04-04T01:55:12.678Z,-0.88
2023-04-04T01:58:15.959Z,-0.95
2023-04-04T02:01:17.591Z,-0.95
2023-04-04T02:04:19.266Z,-0.90
2023-04-04T02:07:20.910Z,-0.91
2023-04-04T02:10:23.105Z,-0.92
2023-04-04T02:13:26.088Z,-0.99
2023-04-04T02:16:28.061Z,-1.03
2023-04-04T02:19:29.722Z,-1.02
2023-04-04T02:22:31.401Z,-1.01
2023-04-04T02:25:32.995Z,-1.01
2023-04-04T02:28:36.065Z,-1.04
2023-04-04T02:31:37.813Z,-1.05
2023-04-04T02:34:39.972Z,-1.07
2023-04-04T02:37:43.030Z,-1.07
2023-04-04T02:40:46.267Z,-1.05
2023-04-04T02:43:51.455Z,-1.08
2023-04-04T02:46:53.981Z,-1.13
2023-04-04T02:50:02.147Z,-1.12
2023-04-04T02:53:04.520Z,-1.16
2023-04-04T02:56:08.887Z,-1.17
2023-04-04T02:59:12.375Z,-1.19
2023-04-04T03:02:14.135Z,-1.10
2023-04-04T03:05:15.982Z,-1.04
2023-04-04T03:08:18.465Z,-1.04
2023-04-04T03:11:21.580Z,-1.01
2023-04-04T03:14:27.123Z,-1.03
2023-04-04T03:17:30.746Z,-1.15
2023-04-04T03:20:33.118Z,-1.19
2023-04-04T03:23:35.034Z,-1.28
2023-04-04T03:26:36.607Z,-1.26
2023-04-04T03:29:40.578Z,-1.30
2023-04-04T03:32:42.719Z,-1.27
2023-04-04T03:35:44.538Z,-1.21
2023-04-04T03:38:46.158Z,-1.18
2023-04-04T03:41:47.989Z,-1.15
2023-04-04T03:44:51.168Z,-1.18
2023-04-04T03:48:02.298Z,-1.12
2023-04-04T03:51:05.569Z,-1.13
2023-04-04T03:54:07.204Z,-1.14
2023-04-04T03:57:09.103Z,-1.23
2023-04-04T04:00:13.082Z,-1.29
2023-04-04T04:03:16.411Z,-1.36
2023-04-04T04:06:18.871Z,-1.42
2023-04-04T04:09:21.445Z,-1.33
2023-04-04T04:12:23.784Z,-1.25
2023-04-04T04:15:28.606Z,-1.21
2023-04-04T04:18:32.804Z,-1.25
2023-04-04T04:21:35.480Z,-1.31
2023-04-04T04:24:37.153Z,-1.37
2023-04-04T04:27:41.049Z,-1.41
2023-04-04T04:30:44.930Z,-1.44
2023-04-04T04:33:48.921Z,-1.46
2023-04-04T04:36:53.906Z,-1.42
2023-04-04T04:40:02.005Z,-1.36
2023-04-04T04:43:15.330Z,-1.33
2023-04-04T04:46:18.373Z,-1.34
2023-04-04T04:49:20.279Z,-1.35
2023-04-04T04:52:22.800Z,-1.35
2023-04-04T04:55:25.249Z,-1.36
2023-04-04T04:58:37.443Z,-1.38
2023-04-04T05:01:43.833Z,-1.31
2023-04-04T05:04:45.681Z,-1.27
2023-04-04T05:07:49.945Z,-1.26
2023-04-04T05:10:52.787Z,-1.25
2023-04-04T05:13:55.466Z,-1.23
2023-04-04T05:17:01.765Z,-1.28
2023-04-04T05:20:07.692Z,-1.28
2023-04-04T05:23:10.680Z,-1.24
2023-04-04T05:26:15.874Z,-1.26
2023-04-04T05:29:18.394Z,-1.20
2023-04-04T05:32:24.465Z,-1.14
2023-04-04T05:35:36.447Z,-1.21
2023-04-04T05:38:39.278Z,-1.13
2023-04-04T05:41:41.980Z,-1.08
2023-04-04T05:44:48.979Z,-1.10
2023-04-04T05:47:52.218Z,-1.07
2023-04-04T05:50:55.592Z,-0.96
2023-04-04T05:54:10.085Z,-0.87
2023-04-04T05:57:13.274Z,-0.87
2023-04-04T06:00:22.748Z,-0.87
2023-04-04T06:03:38.252Z,-0.85
2023-04-04T06:06:45.471Z,-0.81
2023-04-04T06:09:47.532Z,-0.77
2023-04-04T06:12:49.415Z,-0.69
2023-04-04T06:15:52.095Z,-0.59
2023-04-04T06:18:56.819Z,-0.52
2023-04-04T06:21:58.499Z,-0.37
2023-04-04T06:25:00.850Z,-0.21
2023-04-04T06:28:04.412Z,-0.03
2023-04-04T06:31:07.392Z,0.10
2023-04-04T06:34:10.458Z,0.13
2023-04-04T06:37:25.015Z,0.17
2023-04-04T06:40:36.320Z,0.24
2023-04-04T06:43:38.540Z,0.29
2023-04-04T06:46:40.285Z,0.42
2023-04-04T06:49:43.302Z,0.52
2023-04-04T06:52:45.779Z,0.48
2023-04-04T06:55:47.381Z,0.62
2023-04-04T06:58:49.292Z,0.61
2023-04-04T07:01:51.178Z,0.82
2023-04-04T07:04:54.076Z,0.83
2023-04-04T07:07:56.764Z,0.86
2023-04-04T07:10:58.746Z,0.94
2023-04-04T07:14:00.556Z,1.00
2023-04-04T07:17:10.653Z,1.06
2023-04-04T07:20:20.338Z,1.14
2023-04-04T07:23:21.999Z,1.09
2023-04-04T07:26:23.723Z,1.10
2023-04-04T07:29:25.383Z,1.31
2023-04-04T07:32:27.152Z,1.49
2023-04-04T07:35:30.220Z,1.63
2023-04-04T07:38:31.867Z,1.76
2023-04-04T07:41:33.729Z,1.79
2023-04-04T07:44:35.579Z,1.78
2023-04-04T07:47:37.526Z,1.74
2023-04-04T07:50:40.840Z,1.80
2023-04-04T07:53:42.576Z,2.00
2023-04-04T07:56:44.295Z,2.02
2023-04-04T07:59:46.013Z,1.94
2023-04-04T08:02:51.611Z,1.98
2023-04-04T08:05:54.581Z,2.17
2023-04-04T08:08:56.127Z,2.36
2023-04-04T08:11:57.712Z,2.45
2023-04-04T08:14:59.420Z,2.70
2023-04-04T08:18:01.704Z,2.82
2023-04-04T08:21:04.778Z,2.74
2023-04-04T08:24:06.628Z,2.73
2023-04-04T08:27:08.160Z,2.82
2023-04-04T08:30:10.233Z,3.02
2023-04-04T08:33:11.882Z,3.24
2023-04-04T08:36:14.736Z,3.20
2023-04-04T08:39:16.339Z,3.32
2023-04-04T08:42:20.547Z,3.00
2023-04-04T08:45:23.342Z,2.86
2023-04-04T08:48:27.095Z,3.03
2023-04-04T08:51:31.755Z,3.10
2023-04-04T08:54:34.275Z,3.18
2023-04-04T08:57:36.205Z,3.54
2023-04-04T09:00:40.531Z,3.53
2023-04-04T09:03:43.155Z,3.51
2023-04-04T09:06:46.954Z,3.70
2023-04-04T09:09:49.370Z,3.92
2023-04-04T09:12:51.859Z,4.05
2023-04-04T09:15:55.213Z,3.90
2023-04-04T09:18:56.981Z,3.79
2023-04-04T09:21:59.955Z,3.93
2023-04-04T09:25:01.543Z,4.13
2023-04-04T09:28:05.522Z,4.03
2023-04-04T09:31:08.299Z,4.17
2023-04-04T09:34:10.304Z,4.23
2023-04-04T09:37:15.560Z,3.88
2023-04-04T09:40:17.429Z,3.94
2023-04-04T09:43:19.544Z,4.11
2023-04-04T09:46:21.378Z,4.26
2023-04-04T09:49:23.425Z,4.52
2023-04-04T09:52:27.076Z,4.49
2023-04-04T09:55:31.447Z,4.32
2023-04-04T09:58:36.414Z,4.23
2023-04-04T10:01:38.227Z,4.00
2023-04-04T10:04:40.069Z,4.17
2023-04-04T10:07:44.381Z,4.16
2023-04-04T10:10:55.715Z,4.64
2023-04-04T10:14:04.768Z,4.76
2023-04-04T10:17:09.246Z,4.92
2023-04-04T10:20:12.033Z,4.72
2023-04-04T10:23:16.342Z,5.06
2023-04-04T10:26:18.036Z,5.19
2023-04-04T10:29:20.024Z,5.23
2023-04-04T10:32:24.508Z,5.19
2023-04-04T10:35:26.522Z,5.16
2023-04-04T10:38:31.784Z,4.88
2023-04-04T10:41:34.187Z,4.63
2023-04-04T10:44:39.033Z,4.33
2023-04-04T10:47:42.509Z,4.65
2023-04-04T10:50:44.184Z,5.38
2023-04-04T10:53:47.402Z,5.72
2023-04-04T10:56:49.795Z,5.61
2023-04-04T10:59:59.105Z,5.46
2023-04-04T11:03:02.708Z,5.49
2023-04-04T11:06:14.401Z,5.11
2023-04-04T11:09:37.254Z,5.19
2023-04-04T11:12:45.107Z,5.48
2023-04-04T11:15:51.576Z,5.74
2023-04-04T11:18:59.294Z,6.01
2023-04-04T11:22:00.948Z,5.89
2023-04-04T11:25:17.860Z,5.68
2023-04-04T11:28:43.971Z,5.90
2023-04-04T11:31:45.854Z,6.12
2023-04-04T11:34:50.356Z,6.17
2023-04-04T11:38:02.157Z,6.12
2023-04-04T11:41:05.060Z,6.48
2023-04-04T11:44:10.251Z,6.88
2023-04-04T11:47:12.700Z,7.07
2023-04-04T11:50:14.970Z,6.69
2023-04-04T11:53:17.565Z,6.76
2023-04-04T11:56:19.299Z,6.98
2023-04-04T11:59:23.159Z,6.56
2023-04-04T12:02:29.803Z,6.55
2023-04-04T12:05:31.652Z,6.69
2023-04-04T12:08:33.773Z,6.71
2023-04-04T12:11:36.494Z,6.41
2023-04-04T12:14:40.159Z,5.72
2023-04-04T12:17:42.277Z,5.62
2023-04-04T12:20:47.664Z,5.48
2023-04-04T12:23:49.586Z,6.00
2023-04-04T12:26:52.435Z,6.49
2023-04-04T12:29:55.776Z,6.51
2023-04-04T12:32:57.804Z,6.39
2023-04-04T12:36:00.166Z,6.55
2023-04-04T12:39:04.783Z,6.75
2023-04-04T12:42:07.599Z,6.45
2023-04-04T12:45:11.134Z,6.38
2023-04-04T12:48:13.800Z,6.74
2023-04-04T12:51:15.996Z,6.46
2023-04-04T12:54:29.037Z,6.21
2023-04-04T12:57:34.030Z,6.24
2023-04-04T13:00:37.243Z,6.42
2023-04-04T13:03:38.972Z,6.84
2023-04-04T13:06:40.814Z,7.02
2023-04-04T13:09:52.578Z,7.09
2023-04-04T13:12:56.855Z,6.77
2023-04-04T13:16:00.358Z,6.27
2023-04-04T13:19:02.591Z,6.37
2023-04-04T13:22:08.191Z,5.97
2023-04-04T13:25:11.207Z,6.27
2023-04-04T13:28:13.051Z,6.87
2023-04-04T13:31:16.365Z,6.98
2023-04-04T13:34:18.234Z,6.47
2023-04-04T13:37:20.591Z,6.51
2023-04-04T13:40:22.199Z,6.87
2023-04-04T13:43:23.962Z,6.84
2023-04-04T13:46:27.372Z,7.08
2023-04-04T13:49:29.048Z,6.68
2023-04-04T13:52:30.906Z,6.71
2023-04-04T13:55:32.552Z,6.48
2023-04-04T13:58:34.062Z,6.66
2023-04-04T14:01:40.085Z,6.90
2023-04-04T14:04:41.787Z,7.39
2023-04-04T14:07:45.548Z,7.38
2023-04-04T14:10:47.061Z,7.03
2023-04-04T14:13:48.686Z,6.81
2023-04-04T14:16:51.783Z,7.05
2023-04-04T14:19:53.458Z,6.89
2023-04-04T14:22:54.975Z,6.83
2023-04-04T14:25:56.647Z,6.81
2023-04-04T14:28:58.113Z,6.78
2023-04-04T14:32:01.448Z,6.75
2023-04-04T14:35:03.157Z,6.68
2023-04-04T14:38:04.830Z,6.40
2023-04-04T14:41:06.616Z,6.48
2023-04-04T14:44:08.582Z,6.60
2023-04-04T14:47:11.722Z,6.52
2023-04-04T14:50:13.303Z,6.55
2023-04-04T14:53:14.997Z,6.49
2023-04-04T14:56:16.554Z,6.60
2023-04-04T14:59:18.337Z,6.56
2023-04-04T15:02:22.205Z,6.48
2023-04-04T15:05:25.305Z,6.65
2023-04-04T15:08:27.506Z,6.79
2023-04-04T15:11:29.106Z,6.96
2023-04-04T15:14:30.647Z,7.01
2023-04-04T15:17:34.011Z,6.86
2023-04-04T15:20:40.218Z,6.75
2023-04-04T15:23:42.058Z,6.67
2023-04-04T15:26:43.766Z,6.62
2023-04-04T15:29:45.512Z,6.66
2023-04-04T15:32:48.469Z,6.63
2023-04-04T15:35:50.303Z,6.54
2023-04-04T15:38:52.126Z,6.58
2023-04-04T15:41:53.754Z,6.52
2023-04-04T15:44:55.588Z,6.40
2023-04-04T15:47:58.609Z,6.19
2023-04-04T15:51:04.153Z,6.09
2023-04-04T15:54:06.109Z,6.14
2023-04-04T15:57:07.835Z,6.09
2023-04-04T16:00:09.984Z,6.18
2023-04-04T16:03:13.295Z,6.38
2023-04-04T16:06:14.977Z,6.30
2023-04-04T16:09:16.559Z,6.25
2023-04-04T16:12:18.452Z,6.10
2023-04-04T16:15:20.768Z,6.06
2023-04-04T16:18:27.330Z,6.09
2023-04-04T16:21:29.289Z,6.06
2023-04-04T16:24:30.843Z,6.03
2023-04-04T16:27:32.604Z,5.97
2023-04-04T16:30:34.201Z,5.92
2023-04-04T16:33:37.060Z,5.99
2023-04-04T16:36:38.664Z,5.99
2023-04-04T16:39:41.072Z,5.86
2023-04-04T16:42:42.809Z,5.93
2023-04-04T16:45:44.560Z,6.10
2023-04-04T16:48:47.814Z,6.01
2023-04-04T16:51:49.566Z,5.92
2023-04-04T16:54:52.680Z,5.97
2023-04-04T16:57:54.567Z,6.29
2023-04-04T17:00:56.293Z,6.33
2023-04-04T17:03:59.469Z,6.11
2023-04-04T17:07:02.437Z,5.94
2023-04-04T17:10:04.484Z,5.84
2023-04-04T17:13:06.528Z,5.92
2023-04-04T17:16:08.626Z,5.91
2023-04-04T17:19:12.880Z,5.76
2023-04-04T17:22:16.109Z,5.65
2023-04-04T17:25:18.225Z,5.55
2023-04-04T17:28:20.008Z,5.46
2023-04-04T17:31:24.672Z,5.42
2023-04-04T17:34:27.870Z,5.25
2023-04-04T17:37:31.007Z,5.18
2023-04-04T17:40:32.786Z,5.13
2023-04-04T17:43:34.626Z,5.06
2023-04-04T17:46:38.524Z,4.92
2023-04-04T17:49:41.669Z,4.84
2023-04-04T17:52:44.329Z,4.77
2023-04-04T17:55:46.062Z,4.69
2023-04-04T17:58:47.794Z,4.60
2023-04-04T18:01:49.766Z,4.54
2023-04-04T18:04:52.821Z,4.47
2023-04-04T18:07:54.385Z,4.36
2023-04-04T18:10:57.161Z,4.32
2023-04-04T18:13:58.929Z,4.25
2023-04-04T18:17:00.920Z,4.14
2023-04-04T18:20:05.535Z,4.05
2023-04-04T18:23:07.204Z,3.98
2023-04-04T18:26:09.436Z,3.90
2023-04-04T18:29:13.149Z,3.86
2023-04-04T18:32:14.933Z,3.83
2023-04-04T18:35:18.669Z,3.79
2023-04-04T18:38:20.302Z,3.71
2023-04-04T18:41:22.321Z,3.64
2023-04-04T18:44:24.558Z,3.65
2023-04-04T18:47:27.209Z,3.62
2023-04-04T18:50:30.371Z,3.61
2023-04-04T18:53:31.967Z,3.57
2023-04-04T18:56:33.747Z,3.56
2023-04-04T18:59:35.448Z,3.55
2023-04-04T19:02:38.651Z,3.55
2023-04-04T19:05:46.156Z,3.56
2023-04-04T19:08:50.074Z,3.53
2023-04-04T19:11:52.698Z,3.50
2023-04-04T19:14:54.714Z,3.48
2023-04-04T19:17:56.610Z,3.46
2023-04-04T19:20:59.868Z,3.44
2023-04-04T19:24:01.885Z,3.43
2023-04-04T19:27:03.673Z,3.39
2023-04-04T19:30:12.142Z,3.37
2023-04-04T19:33:15.466Z,3.37
2023-04-04T19:36:19.584Z,3.35
2023-04-04T19:39:23.398Z,3.33
2023-04-04T19:42:27.136Z,3.30
2023-04-04T19:45:46.708Z,3.27
2023-04-04T19:48:49.249Z,3.26
2023-04-04T19:51:53.506Z,3.26
2023-04-04T19:54:55.311Z,3.22
2023-04-04T19:57:57.276Z,3.17
2023-04-04T20:00:58.994Z,3.18
2023-04-04T20:04:05.189Z,3.16
2023-04-04T20:07:10.658Z,3.12
2023-04-04T20:10:12.422Z,3.15
2023-04-04T20:13:14.141Z,3.14
2023-04-04T20:16:17.092Z,3.12
2023-04-04T20:19:19.715Z,3.11
2023-04-04T20:22:23.482Z,3.10
2023-04-04T20:25:39.591Z,3.07
2023-04-04T20:28:43.863Z,3.04
2023-04-04T20:31:46.646Z,3.00
2023-04-04T20:34:50.294Z,3.00
2023-04-04T20:37:53.572Z,2.99
2023-04-04T20:40:59.209Z,3.00
2023-04-04T20:44:01.078Z,2.98
2023-04-04T20:47:02.732Z,2.92
2023-04-04T20:50:22.448Z,2.86
2023-04-04T20:53:27.464Z,2.78
2023-04-04T20:56:43.728Z,2.70
2023-04-04T20:59:48.368Z,2.56
2023-04-04T21:02:50.492Z,2.47
2023-04-04T21:05:52.834Z,2.44
2023-04-04T21:08:56.073Z,2.35
2023-04-04T21:11:58.324Z,2.32
2023-04-04T21:15:00.606Z,2.33
2023-04-04T21:18:06.642Z,2.29
2023-04-04T21:21:12.434Z,2.25
2023-04-04T21:27:41.864Z,2.19
2023-04-04T21:30:44.187Z,2.16
2023-04-04T21:33:46.368Z,2.11
2023-04-04T21:36:48.626Z,2.08
2023-04-04T21:39:52.245Z,1.99
2023-04-04T21:42:55.549Z,1.94
2023-04-04T21:45:57.347Z,1.89
2023-04-04T21:48:58.978Z,1.86
2023-04-04T21:52:00.741Z,1.81
2023-04-04T21:55:02.767Z,1.77
2023-04-04T21:58:08.904Z,1.78
2023-04-04T22:01:12.045Z,1.80
2023-04-04T22:04:13.809Z,1.77
2023-04-04T22:07:15.413Z,1.73
2023-04-04T22:10:18.954Z,1.69
2023-04-04T22:13:22.682Z,1.57
2023-04-04T22:16:26.082Z,1.54
2023-04-04T22:19:27.666Z,1.45
2023-04-04T22:22:30.106Z,1.40
2023-04-04T22:25:33.959Z,1.35
2023-04-04T22:28:38.563Z,1.26
2023-04-04T22:31:40.355Z,1.13
2023-04-04T22:34:42.302Z,1.03
2023-04-04T22:37:46.075Z,1.02
2023-04-04T22:40:47.974Z,1.01
2023-04-04T22:43:50.931Z,1.02
2023-04-04T22:46:52.685Z,1.16
2023-04-04T22:50:06.073Z,1.20
2023-04-04T22:53:13.100Z,1.19
2023-04-04T22:56:15.065Z,1.16
2023-04-04T22:59:42.409Z,1.13
2023-04-04T23:02:47.267Z,1.12
2023-04-04T23:05:49.708Z,1.13
2023-04-04T23:08:51.577Z,1.11
2023-04-04T23:11:53.420Z,1.07
2023-04-04T23:14:55.012Z,1.07
2023-04-04T23:17:58.288Z,1.06
2023-04-04T23:21:00.190Z,1.03
2023-04-04T23:27:22.809Z,1.03
2023-04-04T23:30:25.609Z,1.02
2023-04-04T23:33:28.564Z,1.02
2023-04-04T23:36:30.999Z,1.04
2023-04-04T23:39:32.835Z,1.05
2023-04-04T23:42:34.623Z,1.04
2023-04-04T23:45:39.687Z,1.03
2023-04-04T23:48:42.730Z,1.03
2023-04-04T23:51:44.918Z,1.06
2023-04-04T23:54:46.521Z,1.12
2023-04-04T23:57:48.187Z,1.08
